Time;durP1;ratioP1;P1;durP2;ratioP2;P2;SDS_P1;SDS_P2;PMS_P1;PMS_P2;Temp;Humidity;BMP_temperature;BMP_pressure;BME280_temperature;BME280_humidity;BME280_pressure;Samples;Min_cycle;Max_cycle;Signal;HPM_P1;HPM_P2
2021/01/29 00:01:34;;;;;;;296.27;45.35;;;;;;;;;;5051062;28;20025;-76
2021/01/29 00:04:00;;;;;;;328.50;47.10;;;;;;;;;;5064076;28;20589;-76
2021/01/29 00:06:26;;;;;;;387.70;52.55;;;;;;;;;;5052008;28;20027;-76
2021/01/29 00:08:52;;;;;;;393.05;53.35;;;;;;;;;;5070622;28;20029;-76
2021/01/29 00:11:18;;;;;;;435.15;57.15;;;;;;;;;;5069657;28;20040;-76
2021/01/29 00:13:44;;;;;;;458.33;58.70;;;;;;;;;;5060791;28;20040;-76
2021/01/29 00:16:10;;;;;;;348.50;51.03;;;;;;;;;;5065161;28;20029;-76
2021/01/29 00:18:36;;;;;;;309.17;47.80;;;;;;;;;;5070263;28;20024;-76
2021/01/29 00:21:02;;;;;;;471.52;62.38;;;;;;;;;;5038896;28;20136;-76
2021/01/29 00:23:28;;;;;;;384.38;55.65;;;;;;;;;;5064203;28;20045;-76
2021/01/29 00:25:54;;;;;;;554.10;64.05;;;;;;;;;;5061669;28;20033;-76
2021/01/29 00:28:20;;;;;;;514.95;61.80;;;;;;;;;;5051344;28;20052;-76
2021/01/29 00:30:46;;;;;;;481.83;57.97;;;;;;;;;;5052249;28;20025;-76
2021/01/29 00:33:14;;;;;;;385.50;51.45;;;;;;;;;;5051386;28;20033;-76
2021/01/29 00:35:40;;;;;;;461.75;56.00;;;;;;;;;;5070428;28;20028;-76
2021/01/29 00:38:06;;;;;;;400.08;52.22;;;;;;;;;;5055465;28;20024;-76
2021/01/29 00:40:33;;;;;;;340.42;50.78;;;;;;;;;;5051363;28;20094;-75
2021/01/29 00:42:59;;;;;;;329.15;51.20;;;;;;;;;;5051341;28;20575;-76
2021/01/29 00:45:27;;;;;;;408.92;60.25;;;;;;;;;;5050903;28;20032;-76
2021/01/29 00:47:53;;;;;;;346.70;55.42;;;;;;;;;;5069953;28;20072;-76
2021/01/29 00:50:19;;;;;;;419.67;58.95;;;;;;;;;;5069303;28;20469;-76
2021/01/29 00:52:45;;;;;;;373.88;55.78;;;;;;;;;;5063662;28;20104;-76
2021/01/29 00:55:12;;;;;;;370.30;52.53;;;;;;;;;;5061700;28;20382;-76
2021/01/29 00:57:37;;;;;;;332.42;52.50;;;;;;;;;;5066518;28;20040;-76
2021/01/29 01:00:05;;;;;;;441.42;61.03;;;;;;;;;;5049481;28;20033;-76
2021/01/29 01:02:31;;;;;;;446.60;62.00;;;;;;;;;;5050759;28;20040;-76
2021/01/29 01:04:57;;;;;;;437.08;60.13;;;;;;;;;;5049424;28;20025;-76
2021/01/29 01:07:23;;;;;;;418.90;58.63;;;;;;;;;;5050576;28;20037;-76
2021/01/29 01:09:49;;;;;;;415.55;63.70;;;;;;;;;;5032436;28;20493;-76
2021/01/29 01:12:15;;;;;;;429.20;62.97;;;;;;;;;;5049303;28;20025;-76
2021/01/29 01:14:41;;;;;;;469.85;66.07;;;;;;;;;;5051855;28;20037;-76
2021/01/29 01:17:07;;;;;;;389.33;61.28;;;;;;;;;;5061860;28;20033;-76
2021/01/29 01:19:36;;;;;;;390.08;60.28;;;;;;;;;;5051210;28;20078;-76
2021/01/29 01:22:04;;;;;;;355.73;54.85;;;;;;;;;;5056764;28;20383;-76
2021/01/29 01:24:30;;;;;;;306.92;53.33;;;;;;;;;;5050965;28;20036;-76
2021/01/29 01:26:56;;;;;;;352.73;59.03;;;;;;;;;;5036631;28;20028;-76
2021/01/29 01:29:22;;;;;;;364.75;60.53;;;;;;;;;;5059072;28;20029;-76
2021/01/29 01:31:48;;;;;;;363.15;57.60;;;;;;;;;;5032388;28;20642;-76
2021/01/29 01:34:14;;;;;;;273.08;53.15;;;;;;;;;;5040343;28;20020;-76
2021/01/29 01:36:40;;;;;;;337.88;56.88;;;;;;;;;;5055399;28;20485;-76
2021/01/29 01:39:06;;;;;;;291.55;52.55;;;;;;;;;;5060835;28;20478;-76
2021/01/29 01:41:32;;;;;;;297.23;57.25;;;;;;;;;;5069025;28;20036;-76
2021/01/29 01:44:04;;;;;;;306.60;60.40;;;;;;;;;;5064040;28;20087;-76
2021/01/29 01:46:30;;;;;;;354.08;66.65;;;;;;;;;;5048729;28;20037;-76
2021/01/29 01:49:08;;;;;;;341.23;66.72;;;;;;;;;;5048332;28;20028;-76
2021/01/29 01:51:45;;;;;;;305.25;63.97;;;;;;;;;;5048242;28;20029;-76
2021/01/29 01:54:30;;;;;;;324.25;63.13;;;;;;;;;;5044606;28;20031;-76
2021/01/29 01:56:58;;;;;;;298.45;65.22;;;;;;;;;;5046626;28;20048;-75
2021/01/29 01:59:28;;;;;;;286.30;61.00;;;;;;;;;;5066666;28;20060;-76
2021/01/29 02:01:55;;;;;;;287.45;64.85;;;;;;;;;;5057125;28;20029;-76
2021/01/29 02:04:24;;;;;;;253.93;60.13;;;;;;;;;;5061674;28;20044;-76
2021/01/29 02:06:58;;;;;;;255.23;60.13;;;;;;;;;;5058412;28;20029;-76
2021/01/29 02:09:24;;;;;;;255.40;58.22;;;;;;;;;;5067827;28;20425;-76
2021/01/29 02:11:51;;;;;;;240.77;57.55;;;;;;;;;;5058682;28;20099;-76
2021/01/29 02:14:17;;;;;;;223.93;56.83;;;;;;;;;;5040971;28;20366;-76
2021/01/29 02:16:49;;;;;;;257.52;57.28;;;;;;;;;;5041557;28;20035;-76
2021/01/29 02:19:30;;;;;;;238.48;57.85;;;;;;;;;;5067096;28;20036;-76
2021/01/29 02:21:56;;;;;;;245.90;53.35;;;;;;;;;;5042796;28;20058;-76
2021/01/29 02:24:56;;;;;;;238.77;55.28;;;;;;;;;;5059329;28;20064;-76
2021/01/29 02:27:30;;;;;;;226.30;54.63;;;;;;;;;;5048043;28;20028;-76
2021/01/29 02:30:10;;;;;;;220.57;51.10;;;;;;;;;;5064826;28;20207;-76
2021/01/29 02:32:55;;;;;;;235.10;52.20;;;;;;;;;;5049733;28;20024;-76
2021/01/29 02:35:35;;;;;;;202.02;49.28;;;;;;;;;;5048693;28;20025;-75
2021/01/29 02:38:04;;;;;;;196.55;50.30;;;;;;;;;;5046243;28;20017;-76
2021/01/29 02:40:42;;;;;;;203.88;49.08;;;;;;;;;;5055631;28;20079;-76
2021/01/29 02:43:11;;;;;;;191.32;50.45;;;;;;;;;;5053971;28;20064;-75
2021/01/29 02:45:37;;;;;;;186.82;49.50;;;;;;;;;;5055643;28;20052;-76
2021/01/29 02:48:21;;;;;;;190.75;47.05;;;;;;;;;;5048849;28;20033;-76
2021/01/29 02:50:59;;;;;;;211.77;48.45;;;;;;;;;;5051434;28;20025;-76
2021/01/29 02:53:33;;;;;;;172.52;47.08;;;;;;;;;;5029253;28;20047;-75
2021/01/29 02:56:17;;;;;;;184.32;46.25;;;;;;;;;;5049329;28;20490;-76
2021/01/29 02:58:49;;;;;;;166.95;45.63;;;;;;;;;;5055102;28;20047;-75
2021/01/29 03:01:21;;;;;;;186.73;47.28;;;;;;;;;;5053078;28;20025;-75
2021/01/29 03:03:57;;;;;;;191.88;49.22;;;;;;;;;;5055100;28;20494;-75
2021/01/29 03:06:26;;;;;;;166.65;43.88;;;;;;;;;;5035575;28;20111;-75
2021/01/29 03:09:01;;;;;;;165.65;45.67;;;;;;;;;;5071288;28;20020;-75
2021/01/29 03:11:30;;;;;;;175.30;45.50;;;;;;;;;;5057343;28;20025;-75
2021/01/29 03:13:56;;;;;;;156.65;41.53;;;;;;;;;;5064014;28;20114;-75
2021/01/29 03:16:23;;;;;;;192.10;47.08;;;;;;;;;;5032968;28;20573;-75
2021/01/29 03:18:54;;;;;;;196.98;48.33;;;;;;;;;;5037816;28;20029;-75
2021/01/29 03:21:26;;;;;;;134.00;39.17;;;;;;;;;;5059445;28;20032;-75
2021/01/29 03:23:55;;;;;;;139.85;38.28;;;;;;;;;;5071246;28;20032;-75
2021/01/29 03:26:28;;;;;;;157.10;41.50;;;;;;;;;;5053713;28;20060;-75
2021/01/29 03:28:56;;;;;;;157.18;41.15;;;;;;;;;;5064847;28;20025;-75
2021/01/29 03:31:24;;;;;;;161.75;42.75;;;;;;;;;;5060895;28;20470;-75
2021/01/29 03:34:02;;;;;;;201.07;45.67;;;;;;;;;;5070451;28;20031;-76
2021/01/29 03:36:30;;;;;;;159.27;42.55;;;;;;;;;;5065819;28;20017;-75
2021/01/29 03:38:59;;;;;;;163.30;43.00;;;;;;;;;;5070705;28;20489;-75
2021/01/29 03:41:29;;;;;;;145.85;39.33;;;;;;;;;;5052979;28;20020;-75
2021/01/29 03:43:55;;;;;;;165.80;42.58;;;;;;;;;;5058043;28;20036;-75
2021/01/29 03:46:26;;;;;;;152.98;42.08;;;;;;;;;;5047656;28;20163;-75
2021/01/29 03:48:57;;;;;;;170.05;42.50;;;;;;;;;;5064190;28;20021;-75
2021/01/29 03:51:29;;;;;;;132.43;35.35;;;;;;;;;;5070812;28;20114;-75
2021/01/29 03:54:05;;;;;;;145.25;36.25;;;;;;;;;;5072099;28;20039;-75
2021/01/29 03:56:36;;;;;;;108.80;29.92;;;;;;;;;;5056396;28;20078;-75
2021/01/29 03:59:02;;;;;;;93.05;25.67;;;;;;;;;;5058944;28;20033;-75
2021/01/29 04:01:43;;;;;;;80.72;23.75;;;;;;;;;;5068090;28;20521;-75
2021/01/29 04:04:23;;;;;;;82.30;22.67;;;;;;;;;;5070512;28;20375;-75
2021/01/29 04:06:53;;;;;;;57.80;17.77;;;;;;;;;;5052074;28;20037;-75
2021/01/29 04:09:38;;;;;;;38.58;14.13;;;;;;;;;;5070279;28;20044;-75
2021/01/29 04:12:04;;;;;;;44.42;17.23;;;;;;;;;;5070681;28;20085;-75
2021/01/29 04:14:49;;;;;;;45.30;16.95;;;;;;;;;;5070248;28;20037;-75
2021/01/29 04:17:24;;;;;;;45.75;19.05;;;;;;;;;;5056512;28;20045;-75
2021/01/29 04:19:52;;;;;;;45.17;18.77;;;;;;;;;;5069220;28;20028;-75
2021/01/29 04:22:20;;;;;;;43.95;18.30;;;;;;;;;;5070996;28;20478;-75
2021/01/29 04:24:53;;;;;;;46.50;17.25;;;;;;;;;;5069878;28;20032;-75
2021/01/29 04:27:24;;;;;;;42.58;16.73;;;;;;;;;;5051967;28;20071;-75
2021/01/29 04:29:54;;;;;;;33.10;14.40;;;;;;;;;;5057107;28;20032;-75
2021/01/29 04:32:22;;;;;;;35.22;14.98;;;;;;;;;;5067541;28;20024;-75
2021/01/29 04:34:50;;;;;;;29.25;12.25;;;;;;;;;;5065568;28;20542;-75
2021/01/29 04:37:18;;;;;;;17.45;8.75;;;;;;;;;;5069832;28;20064;-75
2021/01/29 04:39:47;;;;;;;12.55;5.82;;;;;;;;;;5069894;28;20052;-76
2021/01/29 04:42:26;;;;;;;9.38;5.10;;;;;;;;;;5069848;28;20040;-76
2021/01/29 04:44:52;;;;;;;11.75;5.03;;;;;;;;;;5069839;28;20300;-75
2021/01/29 04:47:21;;;;;;;8.43;4.38;;;;;;;;;;5051590;28;20036;-75
2021/01/29 04:49:56;;;;;;;5.63;2.53;;;;;;;;;;5070038;28;20036;-75
2021/01/29 04:52:28;;;;;;;7.00;1.70;;;;;;;;;;5051541;28;20540;-75
2021/01/29 04:55:13;;;;;;;6.25;1.30;;;;;;;;;;5048569;28;20072;-75
2021/01/29 04:57:57;;;;;;;4.18;0.95;;;;;;;;;;5045249;28;20127;-75
2021/01/29 05:00:38;;;;;;;6.30;1.05;;;;;;;;;;5052539;28;20371;-75
2021/01/29 05:03:03;;;;;;;;;;;;;;;;;;5051978;28;20032;-75
2021/01/29 05:05:46;;;;;;;7.40;1.00;;;;;;;;;;5051197;28;20262;-75
2021/01/29 05:08:31;;;;;;;6.85;0.80;;;;;;;;;;5065804;28;20099;-75
2021/01/29 05:11:09;;;;;;;11.88;1.80;;;;;;;;;;5031426;28;20021;-75
2021/01/29 05:13:48;;;;;;;8.80;1.50;;;;;;;;;;5052231;28;20036;-75
2021/01/29 05:16:17;;;;;;;6.82;1.17;;;;;;;;;;5047666;28;20090;-75
2021/01/29 05:18:49;;;;;;;9.43;1.48;;;;;;;;;;5063103;28;20083;-75
2021/01/29 05:21:34;;;;;;;11.68;1.38;;;;;;;;;;5048982;28;20548;-75
2021/01/29 05:24:19;;;;;;;8.40;1.45;;;;;;;;;;5057407;28;20031;-75
2021/01/29 05:26:51;;;;;;;18.00;1.83;;;;;;;;;;5054524;28;20544;-75
2021/01/29 05:29:36;;;;;;;12.13;1.85;;;;;;;;;;5047682;28;20029;-75
2021/01/29 05:32:20;;;;;;;16.30;1.75;;;;;;;;;;5058889;28;20171;-76
2021/01/29 05:35:00;;;;;;;17.20;3.63;;;;;;;;;;5036232;28;20037;-75
2021/01/29 05:37:43;;;;;;;14.40;1.70;;;;;;;;;;5058592;28;20025;-75
2021/01/29 05:40:29;;;;;;;24.75;1.63;;;;;;;;;;5049449;28;20041;-75
2021/01/29 05:43:25;;;;;;;12.10;1.60;;;;;;;;;;5023331;28;20402;-75
2021/01/29 05:46:14;;;;;;;15.82;2.40;;;;;;;;;;5007306;28;20042;-75
2021/01/29 05:48:59;;;;;;;10.68;1.63;;;;;;;;;;5022487;28;20032;-75
2021/01/29 05:51:44;;;;;;;13.40;2.50;;;;;;;;;;5050248;28;20025;-75
2021/01/29 05:54:29;;;;;;;12.38;1.58;;;;;;;;;;5051075;28;20024;-75
2021/01/29 05:57:13;;;;;;;16.70;2.17;;;;;;;;;;5060377;28;20029;-75
2021/01/29 05:59:46;;;;;;;13.57;2.10;;;;;;;;;;5062321;28;20029;-75
2021/01/29 06:02:30;;;;;;;20.02;3.42;;;;;;;;;;5036712;28;20035;-75
2021/01/29 06:05:01;;;;;;;17.92;4.15;;;;;;;;;;5068292;28;20020;-75
2021/01/29 06:07:35;;;;;;;13.85;2.75;;;;;;;;;;5050734;28;20091;-75
2021/01/29 06:10:01;;;;;;;21.23;3.72;;;;;;;;;;5063650;28;20546;-77
2021/01/29 06:12:42;;;;;;;21.02;4.18;;;;;;;;;;5058421;28;20099;-77
2021/01/29 06:15:14;;;;;;;22.63;3.75;;;;;;;;;;5067299;28;20032;-77
2021/01/29 06:17:58;;;;;;;20.60;3.30;;;;;;;;;;5068571;28;20029;-77
2021/01/29 06:20:43;;;;;;;17.90;3.03;;;;;;;;;;5053510;28;20033;-77
2021/01/29 06:23:18;;;;;;;17.23;2.78;;;;;;;;;;5068081;28;20032;-77
2021/01/29 06:25:44;;;;;;;17.83;2.00;;;;;;;;;;5049763;28;20063;-77
2021/01/29 06:28:25;;;;;;;7.53;1.63;;;;;;;;;;5047000;28;20025;-77
2021/01/29 06:31:10;;;;;;;7.07;1.15;;;;;;;;;;5067981;28;20401;-77
2021/01/29 06:34:02;;;;;;;9.85;1.80;;;;;;;;;;5068986;28;20029;-77
2021/01/29 06:36:37;;;;;;;9.43;1.90;;;;;;;;;;5061166;28;20083;-77
2021/01/29 06:39:10;;;;;;;6.32;2.53;;;;;;;;;;5067525;28;20094;-77
2021/01/29 06:41:51;;;;;;;9.85;2.90;;;;;;;;;;5049456;28;20036;-77
2021/01/29 06:44:40;;;;;;;14.65;3.17;;;;;;;;;;5064579;28;20052;-76
2021/01/29 06:47:06;;;;;;;10.65;2.92;;;;;;;;;;5043145;28;20474;-77
2021/01/29 06:49:55;;;;;;;16.73;3.90;;;;;;;;;;5067393;28;20031;-77
2021/01/29 06:52:36;;;;;;;30.65;6.32;;;;;;;;;;5049439;28;20052;-77
2021/01/29 06:55:32;;;;;;;22.23;4.88;;;;;;;;;;5040910;28;20029;-77
2021/01/29 06:58:01;;;;;;;37.08;5.97;;;;;;;;;;5047953;28;20041;-77
2021/01/29 07:00:39;;;;;;;32.20;5.22;;;;;;;;;;5049363;28;20036;-77
2021/01/29 07:03:24;;;;;;;12.90;3.35;;;;;;;;;;5045041;28;20029;-77
2021/01/29 07:06:08;;;;;;;21.63;3.88;;;;;;;;;;5047609;28;20039;-77
2021/01/29 07:08:58;;;;;;;30.35;4.40;;;;;;;;;;5058804;28;20451;-77
2021/01/29 07:11:43;;;;;;;37.07;5.57;;;;;;;;;;5064191;28;20027;-77
2021/01/29 07:14:20;;;;;;;21.50;5.30;;;;;;;;;;5047771;28;20064;-76
2021/01/29 07:17:05;;;;;;;24.98;3.92;;;;;;;;;;5061118;28;20510;-78
2021/01/29 07:19:43;;;;;;;22.05;4.15;;;;;;;;;;5055110;28;20028;-77
2021/01/29 07:22:08;;;;;;;34.03;4.93;;;;;;;;;;5044780;28;20519;-77
2021/01/29 07:24:45;;;;;;;23.02;5.20;;;;;;;;;;5067239;28;20103;-77
2021/01/29 07:27:37;;;;;;;28.35;4.40;;;;;;;;;;5039539;28;20060;-77
2021/01/29 07:30:03;;;;;;;28.10;4.50;;;;;;;;;;5067317;28;20025;-75
2021/01/29 07:32:38;;;;;;;29.67;4.55;;;;;;;;;;5045512;28;20172;-75
2021/01/29 07:35:09;;;;;;;29.42;5.55;;;;;;;;;;5059684;28;20099;-76
2021/01/29 07:37:41;;;;;;;32.63;4.53;;;;;;;;;;5048920;28;20031;-75
2021/01/29 07:40:10;;;;;;;29.92;5.25;;;;;;;;;;5055778;28;20035;-75
2021/01/29 07:42:55;;;;;;;28.00;4.88;;;;;;;;;;5036236;28;20479;-75
2021/01/29 07:45:34;;;;;;;36.38;4.72;;;;;;;;;;5053427;28;20364;-75
2021/01/29 07:48:09;;;;;;;37.55;5.82;;;;;;;;;;5062065;28;20036;-75
2021/01/29 07:50:55;;;;;;;30.92;5.00;;;;;;;;;;5051860;28;20452;-76
2021/01/29 07:53:39;;;;;;;34.60;5.60;;;;;;;;;;5051296;28;20037;-76
2021/01/29 07:56:23;;;;;;;32.45;6.55;;;;;;;;;;5064899;28;20222;-76
2021/01/29 07:58:49;;;;;;;43.88;6.00;;;;;;;;;;5047124;28;20041;-75
2021/01/29 08:01:34;;;;;;;34.75;6.88;;;;;;;;;;5056263;28;20581;-75
2021/01/29 08:04:03;;;;;;;36.03;5.47;;;;;;;;;;5056117;28;20460;-75
2021/01/29 08:06:31;;;;;;;38.83;7.05;;;;;;;;;;5055797;28;20029;-76
2021/01/29 08:08:59;;;;;;;43.65;7.63;;;;;;;;;;5052625;28;20040;-75
2021/01/29 08:11:25;;;;;;;30.15;4.78;;;;;;;;;;5041406;28;20485;-75
2021/01/29 08:13:59;;;;;;;48.47;7.13;;;;;;;;;;5054640;28;20036;-74
2021/01/29 08:16:28;;;;;;;51.80;8.75;;;;;;;;;;5062795;28;20108;-74
2021/01/29 08:19:07;;;;;;;45.97;8.35;;;;;;;;;;5057031;28;20052;-75
2021/01/29 08:21:36;;;;;;;54.72;8.80;;;;;;;;;;5049335;28;20050;-77
2021/01/29 08:24:11;;;;;;;47.78;6.90;;;;;;;;;;5050716;28;20029;-75
2021/01/29 08:27:03;;;;;;;50.08;7.38;;;;;;;;;;5065588;28;20094;-75
2021/01/29 08:29:42;;;;;;;43.22;8.45;;;;;;;;;;5051776;28;20141;-75
2021/01/29 08:32:12;;;;;;;45.37;6.73;;;;;;;;;;5060675;28;20032;-74
2021/01/29 08:34:43;;;;;;;41.20;7.03;;;;;;;;;;5066025;28;20552;-76
2021/01/29 08:37:09;;;;;;;52.15;7.38;;;;;;;;;;5042210;28;20537;-74
2021/01/29 08:39:43;;;;;;;47.78;7.13;;;;;;;;;;5061520;28;20033;-74
2021/01/29 08:42:24;;;;;;;51.22;7.57;;;;;;;;;;5031490;28;20040;-74
2021/01/29 08:45:02;;;;;;;46.50;8.40;;;;;;;;;;5051492;28;20039;-74
2021/01/29 08:47:40;;;;;;;37.83;7.93;;;;;;;;;;5032425;28;20103;-74
2021/01/29 08:50:25;;;;;;;51.17;7.43;;;;;;;;;;5051290;28;20032;-74
2021/01/29 08:53:00;;;;;;;51.88;8.32;;;;;;;;;;5068627;28;20038;-75
2021/01/29 08:55:45;;;;;;;53.25;7.00;;;;;;;;;;5051886;28;20039;-75
2021/01/29 08:58:11;;;;;;;48.65;7.20;;;;;;;;;;5069175;28;20107;-75
2021/01/29 09:00:38;;;;;;;46.95;6.28;;;;;;;;;;5038338;28;20083;-74
2021/01/29 09:03:10;;;;;;;62.90;8.43;;;;;;;;;;5056350;28;20386;-74
2021/01/29 09:05:37;;;;;;;36.17;5.88;;;;;;;;;;5068118;28;20028;-74
2021/01/29 09:08:05;;;;;;;36.47;7.53;;;;;;;;;;5055248;28;21220;-77
2021/01/29 09:10:34;;;;;;;31.65;6.07;;;;;;;;;;5068206;28;20031;-76
2021/01/29 09:13:02;;;;;;;50.28;7.32;;;;;;;;;;5049654;28;20051;-77
2021/01/29 09:15:45;;;;;;;39.55;6.30;;;;;;;;;;5050555;28;20074;-77
2021/01/29 09:18:16;;;;;;;39.80;6.55;;;;;;;;;;5066576;28;20036;-76
2021/01/29 09:20:48;;;;;;;44.00;6.57;;;;;;;;;;5051208;28;20035;-76
2021/01/29 09:23:23;;;;;;;39.00;6.28;;;;;;;;;;5066693;28;20031;-75
2021/01/29 09:25:55;;;;;;;32.75;6.82;;;;;;;;;;5065053;28;20517;-76
2021/01/29 09:28:29;;;;;;;46.55;7.00;;;;;;;;;;5068521;28;20044;-76
2021/01/29 09:30:57;;;;;;;40.38;7.57;;;;;;;;;;5068522;28;20029;-75
2021/01/29 09:33:36;;;;;;;49.63;6.70;;;;;;;;;;5056779;28;20025;-75
2021/01/29 09:36:04;;;;;;;42.83;6.75;;;;;;;;;;5043998;28;20110;-76
2021/01/29 09:38:33;;;;;;;37.83;6.95;;;;;;;;;;5049008;28;20529;-77
2021/01/29 09:41:18;;;;;;;39.40;6.78;;;;;;;;;;5049475;28;20032;-77
2021/01/29 09:43:47;;;;;;;42.90;8.25;;;;;;;;;;5068378;28;20525;-76
2021/01/29 09:46:19;;;;;;;44.97;6.43;;;;;;;;;;5062632;28;20478;-75
2021/01/29 09:48:48;;;;;;;37.35;7.05;;;;;;;;;;5061061;28;20040;-75
2021/01/29 09:51:25;;;;;;;39.20;6.88;;;;;;;;;;5044600;28;20078;-76
2021/01/29 09:54:05;;;;;;;42.03;7.15;;;;;;;;;;5056029;28;20490;-76
2021/01/29 09:56:37;;;;;;;33.20;7.07;;;;;;;;;;5065748;28;20067;-76
2021/01/29 09:59:14;;;;;;;38.78;6.82;;;;;;;;;;5065394;28;20028;-76
2021/01/29 10:01:42;;;;;;;42.40;6.07;;;;;;;;;;5059676;28;20459;-76
2021/01/29 10:04:12;;;;;;;31.35;5.32;;;;;;;;;;5068691;28;20020;-76
2021/01/29 10:06:50;;;;;;;32.35;5.32;;;;;;;;;;5063035;28;20036;-76
2021/01/29 10:09:19;;;;;;;37.72;5.60;;;;;;;;;;5068297;28;20083;-77
2021/01/29 10:12:07;;;;;;;41.42;8.27;;;;;;;;;;5048311;28;20029;-77
2021/01/29 10:15:02;;;;;;;41.13;7.03;;;;;;;;;;5050256;28;20425;-77
2021/01/29 10:17:35;;;;;;;41.60;6.18;;;;;;;;;;5037765;28;20041;-76
2021/01/29 10:20:09;;;;;;;38.50;5.93;;;;;;;;;;5068591;28;20108;-77
2021/01/29 10:22:41;;;;;;;33.78;6.20;;;;;;;;;;5070474;28;20032;-77
2021/01/29 10:25:22;;;;;;;37.30;6.70;;;;;;;;;;5066661;28;20035;-77
2021/01/29 10:27:56;;;;;;;36.63;6.65;;;;;;;;;;5046731;28;20151;-77
2021/01/29 10:30:32;;;;;;;41.22;7.43;;;;;;;;;;5070132;28;20035;-77
2021/01/29 10:33:05;;;;;;;39.05;6.65;;;;;;;;;;5068117;28;20060;-77
2021/01/29 10:35:31;;;;;;;28.08;5.40;;;;;;;;;;5064729;28;20044;-77
2021/01/29 10:38:16;;;;;;;33.15;6.13;;;;;;;;;;5048291;28;20402;-77
2021/01/29 10:40:45;;;;;;;28.95;5.38;;;;;;;;;;5062876;28;21347;-76
2021/01/29 10:43:14;;;;;;;34.25;5.82;;;;;;;;;;5049780;28;20028;-77
2021/01/29 10:45:52;;;;;;;37.37;6.20;;;;;;;;;;5068032;28;20496;-77
2021/01/29 10:48:32;;;;;;;34.58;5.90;;;;;;;;;;5064291;28;20756;-77
2021/01/29 10:51:06;;;;;;;29.13;4.70;;;;;;;;;;5066250;28;20020;-77
2021/01/29 10:53:33;;;;;;;28.52;5.22;;;;;;;;;;5046122;28;20044;-77
2021/01/29 10:55:59;;;;;;;34.53;6.10;;;;;;;;;;5049238;28;20539;-77
2021/01/29 10:58:44;;;;;;;33.83;5.85;;;;;;;;;;5064524;28;20054;-77
2021/01/29 11:01:13;;;;;;;26.02;4.75;;;;;;;;;;5043810;28;20025;-76
2021/01/29 11:03:42;;;;;;;33.03;5.57;;;;;;;;;;5065570;28;20049;-76
2021/01/29 11:06:13;;;;;;;36.42;4.65;;;;;;;;;;5063060;28;20036;-76
2021/01/29 11:08:41;;;;;;;33.13;5.68;;;;;;;;;;5064761;28;20029;-76
2021/01/29 11:11:16;;;;;;;30.67;4.82;;;;;;;;;;5064038;28;20098;-76
2021/01/29 11:13:48;;;;;;;32.03;6.00;;;;;;;;;;5065203;28;20115;-76
2021/01/29 11:16:16;;;;;;;34.50;5.18;;;;;;;;;;5044290;28;20055;-76
2021/01/29 11:18:42;;;;;;;27.40;4.88;;;;;;;;;;5046477;28;20025;-76
2021/01/29 11:21:26;;;;;;;24.38;5.88;;;;;;;;;;5048477;28;20495;-76
2021/01/29 11:24:11;;;;;;;34.20;7.18;;;;;;;;;;5063698;28;20028;-76
2021/01/29 11:26:41;;;;;;;34.70;6.00;;;;;;;;;;5060715;28;20043;-74
2021/01/29 11:29:16;;;;;;;31.08;3.92;;;;;;;;;;5069874;28;20021;-76
2021/01/29 11:32:01;;;;;;;31.50;5.82;;;;;;;;;;5068984;28;20079;-76
2021/01/29 11:34:30;;;;;;;30.63;4.22;;;;;;;;;;5069080;28;20122;-76
2021/01/29 11:37:05;;;;;;;26.85;4.97;;;;;;;;;;5069260;28;20029;-76
2021/01/29 11:39:55;;;;;;;34.65;4.47;;;;;;;;;;5064137;28;20137;-75
2021/01/29 11:42:28;;;;;;;21.00;3.60;;;;;;;;;;5062292;28;20044;-76
2021/01/29 11:44:57;;;;;;;31.83;5.07;;;;;;;;;;5068163;28;20409;-75
2021/01/29 11:47:49;;;;;;;32.67;4.10;;;;;;;;;;5068695;28;20168;-75
2021/01/29 11:50:21;;;;;;;27.55;4.03;;;;;;;;;;5049094;28;20040;-76
2021/01/29 11:52:53;;;;;;;21.50;4.57;;;;;;;;;;5065493;28;20067;-76
2021/01/29 11:55:23;;;;;;;27.20;4.30;;;;;;;;;;5066535;28;20429;-76
2021/01/29 11:57:57;;;;;;;30.90;4.10;;;;;;;;;;5069525;28;20033;-76
2021/01/29 12:00:23;;;;;;;21.90;3.80;;;;;;;;;;5070328;28;20021;-76
2021/01/29 12:02:58;;;;;;;23.55;4.47;;;;;;;;;;5066031;28;20028;-76
2021/01/29 12:05:24;;;;;;;31.48;4.53;;;;;;;;;;5062284;28;20063;-75
2021/01/29 12:07:50;;;;;;;24.08;4.55;;;;;;;;;;5065226;28;20478;-74
2021/01/29 12:10:28;;;;;;;27.95;5.55;;;;;;;;;;5055767;28;20407;-75
2021/01/29 12:12:55;;;;;;;23.35;3.78;;;;;;;;;;5055806;28;20055;-74
2021/01/29 12:15:24;;;;;;;25.30;3.75;;;;;;;;;;5050820;28;20029;-76
2021/01/29 12:17:51;;;;;;;29.17;5.00;;;;;;;;;;5062222;28;20103;-76
2021/01/29 12:20:19;;;;;;;21.15;3.35;;;;;;;;;;5067514;28;20037;-76
2021/01/29 12:23:02;;;;;;;14.00;3.10;;;;;;;;;;5058900;28;20025;-76
2021/01/29 12:25:49;;;;;;;22.42;3.72;;;;;;;;;;5041123;28;20033;-76
2021/01/29 12:28:22;;;;;;;23.75;3.40;;;;;;;;;;5066490;28;20016;-76
2021/01/29 12:30:56;;;;;;;20.48;3.95;;;;;;;;;;5067067;28;20032;-76
2021/01/29 12:33:24;;;;;;;26.70;4.10;;;;;;;;;;5070147;28;20416;-78
2021/01/29 12:35:50;;;;;;;18.08;3.65;;;;;;;;;;5065811;28;20031;-75
2021/01/29 12:38:40;;;;;;;23.35;3.83;;;;;;;;;;5082822;28;20397;-76
2021/01/29 12:41:09;;;;;;;30.10;3.63;;;;;;;;;;5059115;28;20037;-77
2021/01/29 12:43:50;;;;;;;33.08;6.13;;;;;;;;;;5052140;28;20085;-74
2021/01/29 12:46:24;;;;;;;22.25;3.83;;;;;;;;;;5066075;28;20036;-75
2021/01/29 12:48:59;;;;;;;18.92;2.90;;;;;;;;;;5063408;28;20040;-75
2021/01/29 12:51:25;;;;;;;24.23;3.83;;;;;;;;;;5063028;28;20497;-74
2021/01/29 12:53:54;;;;;;;25.63;3.78;;;;;;;;;;5068127;28;20029;-75
2021/01/29 12:56:20;;;;;;;22.55;4.13;;;;;;;;;;5050317;28;20031;-76
2021/01/29 12:58:46;;;;;;;27.15;4.15;;;;;;;;;;5055937;28;20036;-75
2021/01/29 13:01:31;;;;;;;23.08;3.67;;;;;;;;;;5063725;28;20478;-75
2021/01/29 13:03:59;;;;;;;22.85;4.55;;;;;;;;;;5071392;28;20772;-75
2021/01/29 13:06:32;;;;;;;24.33;3.72;;;;;;;;;;5060204;28;20028;-76
2021/01/29 13:09:04;;;;;;;25.70;4.40;;;;;;;;;;5068073;28;20039;-76
2021/01/29 13:11:38;;;;;;;27.83;4.72;;;;;;;;;;5055433;28;20473;-74
2021/01/29 13:14:10;;;;;;;23.00;3.67;;;;;;;;;;5054942;28;20497;-75
2021/01/29 13:17:02;;;;;;;31.42;4.47;;;;;;;;;;5060918;28;20405;-76
2021/01/29 13:19:31;;;;;;;26.08;4.68;;;;;;;;;;5064480;28;20040;-76
2021/01/29 13:21:58;;;;;;;22.38;3.50;;;;;;;;;;5067023;28;20478;-76
2021/01/29 13:24:28;;;;;;;32.78;5.38;;;;;;;;;;5066679;28;20028;-76
2021/01/29 13:26:55;;;;;;;23.00;3.80;;;;;;;;;;5063715;28;20033;-77
2021/01/29 13:29:23;;;;;;;18.08;3.17;;;;;;;;;;5066652;28;20461;-76
2021/01/29 13:31:50;;;;;;;17.42;3.20;;;;;;;;;;5063814;28;20038;-77
2021/01/29 13:34:24;;;;;;;26.73;4.70;;;;;;;;;;5065034;28;20023;-77
2021/01/29 13:37:08;;;;;;;21.02;3.85;;;;;;;;;;5066436;28;20030;-76
2021/01/29 13:39:37;;;;;;;31.50;5.35;;;;;;;;;;5066922;28;20024;-76
2021/01/29 13:42:12;;;;;;;29.63;3.88;;;;;;;;;;5068695;28;20027;-76
2021/01/29 13:44:43;;;;;;;27.77;4.60;;;;;;;;;;5036160;28;20033;-76
2021/01/29 13:47:29;;;;;;;22.60;3.80;;;;;;;;;;5067213;28;20239;-76
2021/01/29 13:49:56;;;;;;;20.42;4.70;;;;;;;;;;5067919;28;20024;-76
2021/01/29 13:52:26;;;;;;;27.73;4.97;;;;;;;;;;5067863;28;20025;-76
2021/01/29 13:54:54;;;;;;;31.40;4.88;;;;;;;;;;5063911;28;20126;-77
2021/01/29 13:57:26;;;;;;;28.70;5.57;;;;;;;;;;5068300;28;20482;-78
2021/01/29 13:59:57;;;;;;;27.30;4.50;;;;;;;;;;5058021;28;20109;-76
2021/01/29 14:02:38;;;;;;;25.75;4.85;;;;;;;;;;5064312;28;20063;-77
2021/01/29 14:05:09;;;;;;;18.48;3.25;;;;;;;;;;5050086;28;20028;-77
2021/01/29 14:07:36;;;;;;;22.08;4.57;;;;;;;;;;5054047;28;20032;-77
2021/01/29 14:10:02;;;;;;;30.10;4.10;;;;;;;;;;5061755;28;20047;-77
2021/01/29 14:12:34;;;;;;;22.83;3.60;;;;;;;;;;5065893;28;20474;-78
2021/01/29 14:15:08;;;;;;;25.67;4.57;;;;;;;;;;5061289;28;20438;-76
2021/01/29 14:17:58;;;;;;;22.40;3.15;;;;;;;;;;5035865;28;20049;-75
2021/01/29 14:20:33;;;;;;;20.60;4.57;;;;;;;;;;5064083;28;20031;-77
2021/01/29 14:23:17;;;;;;;23.17;4.07;;;;;;;;;;5063461;28;20036;-74
2021/01/29 14:26:02;;;;;;;21.30;4.60;;;;;;;;;;5078650;28;20079;-76
2021/01/29 14:28:35;;;;;;;21.98;3.97;;;;;;;;;;5064662;28;20486;-77
2021/01/29 14:31:16;;;;;;;20.83;5.03;;;;;;;;;;5053535;28;20302;-77
2021/01/29 14:33:58;;;;;;;27.27;4.47;;;;;;;;;;5066340;28;20122;-75
2021/01/29 14:36:40;;;;;;;41.25;4.18;;;;;;;;;;5051093;28;20029;-76
2021/01/29 14:39:17;;;;;;;25.23;5.78;;;;;;;;;;5076887;28;20395;-77
2021/01/29 14:41:52;;;;;;;25.83;4.85;;;;;;;;;;5047614;28;20048;-76
2021/01/29 14:44:29;;;;;;;23.40;4.30;;;;;;;;;;5061803;28;20394;-77
2021/01/29 14:47:14;;;;;;;24.45;4.68;;;;;;;;;;5052346;28;20434;-76
2021/01/29 14:49:52;;;;;;;27.33;3.55;;;;;;;;;;5048102;28;20029;-76
2021/01/29 14:52:19;;;;;;;25.60;3.72;;;;;;;;;;5083343;28;20028;-77
2021/01/29 14:54:48;;;;;;;22.90;4.57;;;;;;;;;;5048645;28;20032;-76
2021/01/29 14:57:17;;;;;;;24.58;4.00;;;;;;;;;;5048016;28;20087;-77
2021/01/29 14:59:53;;;;;;;17.70;3.72;;;;;;;;;;5048756;28;20570;-76
2021/01/29 15:02:18;;;;;;;23.80;4.72;;;;;;;;;;5061079;28;20024;-76